Time;durP1;ratioP1;P1;durP2;ratioP2;P2;SDS_P1;SDS_P2;PMS_P1;PMS_P2;Temp;Humidity;BMP_temperature;BMP_pressure;BME280_temperature;BME280_humidity;BME280_pressure;Samples;Min_cycle;Max_cycle;Signal;HPM_P1;HPM_P2
2022/04/08 07:16:05;;;;;;;17.40;9.60;;;4.90;99.90;;;;;;5111097;27;20458;-66
2022/04/08 07:18:30;;;;;;;14.55;11.30;;;5.00;99.90;;;;;;5111201;28;20655;-65
2022/04/08 07:20:56;;;;;;;22.08;10.70;;;4.90;99.90;;;;;;5111129;28;20236;-65
2022/04/08 07:23:21;;;;;;;13.45;10.00;;;4.90;99.90;;;;;;5111141;28;20190;-65
2022/04/08 07:25:47;;;;;;;23.17;10.63;;;5.00;99.90;;;;;;5109867;28;20172;-65
2022/04/08 07:28:12;;;;;;;16.08;11.00;;;5.00;99.90;;;;;;5111006;28;20249;-65
2022/04/08 07:30:38;;;;;;;20.35;10.85;;;5.10;99.90;;;;;;5110995;28;20167;-65
2022/04/08 07:33:04;;;;;;;15.38;10.45;;;5.10;99.90;;;;;;5110958;28;20171;-65
2022/04/08 07:35:30;;;;;;;23.10;10.70;;;5.10;99.90;;;;;;5110757;28;20260;-65
2022/04/08 07:37:57;;;;;;;13.40;10.13;;;5.20;99.90;;;;;;5110876;28;20279;-65
2022/04/08 07:40:22;;;;;;;15.48;9.65;;;5.20;99.90;;;;;;5110645;28;20164;-65
2022/04/08 07:42:49;;;;;;;17.13;10.38;;;5.30;99.90;;;;;;5110581;28;20212;-65
2022/04/08 07:45:15;;;;;;;16.52;10.07;;;5.30;99.90;;;;;;5110645;28;20171;-65
2022/04/08 07:47:40;;;;;;;12.07;8.50;;;5.30;99.90;;;;;;5110633;28;20205;-65
2022/04/08 07:50:09;;;;;;;16.35;10.30;;;5.30;99.90;;;;;;5110747;28;20178;-65
2022/04/08 07:52:36;;;;;;;12.65;10.05;;;5.40;99.90;;;;;;5110857;28;20220;-65
2022/04/08 07:55:02;;;;;;;19.58;10.18;;;5.40;99.90;;;;;;5110305;28;20279;-65
2022/04/08 07:57:28;;;;;;;17.08;9.93;;;5.40;99.90;;;;;;5110509;28;20163;-65
2022/04/08 07:59:53;;;;;;;16.05;9.63;;;5.40;99.90;;;;;;5110533;28;20198;-65
2022/04/08 08:02:19;;;;;;;16.35;9.98;;;5.50;99.90;;;;;;5110330;28;20242;-65
2022/04/08 08:04:45;;;;;;;12.57;9.75;;;5.60;99.90;;;;;;5110306;28;20163;-65
2022/04/08 08:07:10;;;;;;;12.93;9.60;;;5.60;99.90;;;;;;5109034;28;20198;-65
2022/04/08 08:09:36;;;;;;;11.27;9.18;;;5.60;99.90;;;;;;5110259;28;20190;-65
2022/04/08 08:12:03;;;;;;;12.07;8.48;;;5.70;99.90;;;;;;5110282;28;20186;-65
2022/04/08 08:14:29;;;;;;;13.60;9.05;;;5.80;99.90;;;;;;5109824;28;20215;-65
2022/04/08 08:16:55;;;;;;;8.90;8.00;;;5.90;99.90;;;;;;5110152;28;20650;-65
2022/04/08 08:19:20;;;;;;;13.45;9.30;;;5.90;99.90;;;;;;5109747;28;20187;-65
2022/04/08 08:21:46;;;;;;;10.80;8.00;;;5.80;99.90;;;;;;5110014;28;20571;-65
2022/04/08 08:24:12;;;;;;;14.50;9.20;;;5.80;99.90;;;;;;5109895;28;20178;-65
2022/04/08 08:26:38;;;;;;;11.57;8.23;;;5.90;99.90;;;;;;5100917;28;20167;-65
2022/04/08 08:29:06;;;;;;;15.77;9.35;;;6.00;99.90;;;;;;5096320;28;20172;-65
2022/04/08 08:31:32;;;;;;;8.43;7.47;;;6.10;99.90;;;;;;5096274;28;20209;-65
2022/04/08 08:33:58;;;;;;;7.68;7.05;;;6.10;99.90;;;;;;5096104;28;20200;-65
2022/04/08 08:36:23;;;;;;;12.27;7.20;;;6.20;99.90;;;;;;5096071;28;20172;-65
2022/04/08 08:38:49;;;;;;;8.82;7.05;;;6.00;99.90;;;;;;5096133;28;20167;-65
2022/04/08 08:41:18;;;;;;;10.25;6.80;;;5.90;99.90;;;;;;5096381;28;20167;-65
2022/04/08 08:43:44;;;;;;;7.07;6.47;;;5.90;99.90;;;;;;5096061;28;20679;-65
2022/04/08 08:46:12;;;;;;;7.50;6.30;;;6.00;99.90;;;;;;5095994;28;20277;-65
2022/04/08 08:48:38;;;;;;;11.27;6.60;;;7.00;99.90;;;;;;5095874;28;20167;-65
2022/04/08 08:51:06;;;;;;;10.48;6.40;;;6.00;99.90;;;;;;5095874;28;20542;-65
2022/04/08 08:53:33;;;;;;;8.05;6.07;;;6.10;99.90;;;;;;5095794;28;20192;-65
2022/04/08 08:56:00;;;;;;;6.03;5.43;;;6.10;99.90;;;;;;5095723;28;20191;-65
2022/04/08 08:58:25;;;;;;;6.13;5.65;;;6.10;99.90;;;;;;5095556;28;20205;-65
2022/04/08 09:00:51;;;;;;;5.60;5.18;;;6.10;99.90;;;;;;5095543;28;20551;-65
2022/04/08 09:03:17;;;;;;;5.82;5.22;;;6.20;99.90;;;;;;5095487;28;20167;-65
2022/04/08 09:05:52;;;;;;;5.55;4.90;;;6.30;99.90;;;;;;5095514;28;20180;-65
2022/04/08 09:08:19;;;;;;;6.22;5.28;;;6.40;99.90;;;;;;5095431;28;20172;-67
2022/04/08 09:10:48;;;;;;;9.13;4.80;;;6.40;99.90;;;;;;5094312;28;20777;-66
2022/04/08 09:13:19;;;;;;;4.88;4.40;;;6.50;99.90;;;;;;5095403;28;20175;-66
2022/04/08 09:15:55;;;;;;;10.85;5.30;;;6.50;99.90;;;;;;5095187;28;20311;-66
2022/04/08 09:18:21;;;;;;;5.05;4.55;;;6.50;99.90;;;;;;5095405;28;20168;-66
2022/04/08 09:20:49;;;;;;;10.15;5.07;;;6.60;99.90;;;;;;5095149;28;20176;-66
2022/04/08 09:23:16;;;;;;;8.77;4.45;;;6.60;99.90;;;;;;5095153;28;20176;-66
2022/04/08 09:25:42;;;;;;;7.60;4.90;;;6.70;99.90;;;;;;5095229;28;20220;-66
2022/04/08 09:28:11;;;;;;;6.60;4.10;;;6.70;99.90;;;;;;5095098;28;20171;-66
2022/04/08 09:30:37;;;;;;;4.32;3.97;;;6.70;99.90;;;;;;5095262;28;20659;-66
2022/04/08 09:33:13;;;;;;;6.05;3.45;;;6.80;99.90;;;;;;5094860;28;20246;-66
2022/04/08 09:35:40;;;;;;;5.03;3.63;;;6.90;99.90;;;;;;5094936;28;20201;-66
2022/04/08 09:38:05;;;;;;;12.30;4.00;;;7.00;99.90;;;;;;5093998;28;20186;-66
2022/04/08 09:40:36;;;;;;;3.80;3.58;;;7.20;99.90;;;;;;5094853;28;20159;-66
2022/04/08 09:43:02;;;;;;;3.75;3.47;;;7.20;99.90;;;;;;5094898;28;20195;-66
2022/04/08 09:45:30;;;;;;;4.18;3.85;;;7.40;99.90;;;;;;5093708;28;20190;-66
2022/04/08 09:47:59;;;;;;;3.90;3.22;;;7.40;99.90;;;;;;5094777;28;20217;-66
2022/04/08 09:50:24;;;;;;;6.20;3.05;;;7.40;99.90;;;;;;5094720;28;20164;-67
2022/04/08 09:52:50;;;;;;;5.25;3.47;;;7.50;99.90;;;;;;5094634;28;20171;-66
2022/04/08 09:55:16;;;;;;;3.90;3.10;;;7.30;99.90;;;;;;5094471;28;20558;-66
2022/04/08 09:57:47;;;;;;;6.72;3.40;;;7.20;99.90;;;;;;5094590;28;20498;-66
2022/04/08 10:00:15;;;;;;;3.78;3.50;;;7.10;99.90;;;;;;5094614;28;20164;-66
2022/04/08 10:02:44;;;;;;;3.13;3.00;;;7.00;99.90;;;;;;5094476;28;20258;-66
2022/04/08 10:05:11;;;;;;;3.78;3.30;;;7.00;99.90;;;;;;5094471;28;20175;-66
2022/04/08 10:07:38;;;;;;;2.80;2.60;;;7.00;99.90;;;;;;5094239;28;20693;-66
2022/04/08 10:10:19;;;;;;;5.35;2.78;;;7.20;99.90;;;;;;5093144;28;20226;-67
2022/04/08 10:13:03;;;;;;;2.75;2.55;;;7.20;99.90;;;;;;5094364;28;20213;-66
2022/04/08 10:15:42;;;;;;;6.90;3.30;;;7.20;99.90;;;;;;5094413;28;20219;-67
2022/04/08 10:18:08;;;;;;;7.57;3.15;;;7.10;99.90;;;;;;5094221;28;20163;-67
2022/04/08 10:20:36;;;;;;;2.78;2.67;;;7.10;99.90;;;;;;5092732;28;20217;-66
2022/04/08 10:23:09;;;;;;;3.05;2.13;;;7.10;99.90;;;;;;5094099;28;20175;-67
2022/04/08 10:25:40;;;;;;;3.80;2.55;;;7.10;99.90;;;;;;5093798;28;20232;-66
2022/04/08 10:28:08;;;;;;;2.60;2.40;;;7.00;99.90;;;;;;5093987;28;20671;-66
2022/04/08 10:30:36;;;;;;;4.22;2.40;;;7.10;99.90;;;;;;5093951;28;20184;-66
2022/04/08 10:33:04;;;;;;;3.20;3.00;;;7.10;99.90;;;;;;5094005;28;20175;-66
2022/04/08 10:35:30;;;;;;;4.72;3.20;;;7.10;99.90;;;;;;5092558;28;20345;-66
2022/04/08 10:38:00;;;;;;;2.53;2.33;;;7.10;99.90;;;;;;5093933;28;20192;-66
2022/04/08 10:40:41;;;;;;;5.50;3.33;;;7.10;99.90;;;;;;5093514;28;20680;-66
2022/04/08 10:43:09;;;;;;;3.03;2.60;;;7.20;99.90;;;;;;5093737;28;20171;-66
2022/04/08 10:45:38;;;;;;;3.30;3.00;;;7.30;99.90;;;;;;5093482;28;20260;-66
2022/04/08 10:48:10;;;;;;;3.40;3.20;;;7.20;99.90;;;;;;5093722;28;20175;-66
2022/04/08 10:50:37;;;;;;;3.10;2.90;;;7.10;99.90;;;;;;5091940;28;20163;-66
2022/04/08 10:53:13;;;;;;;9.20;3.10;;;7.10;99.90;;;;;;5092402;28;20168;-66
2022/04/08 10:55:54;;;;;;;3.05;2.80;;;7.10;99.90;;;;;;5091856;28;20647;-66
2022/04/08 10:58:34;;;;;;;3.88;3.67;;;7.00;99.90;;;;;;5093624;28;20178;-66
2022/04/08 11:01:00;;;;;;;5.72;3.35;;;6.90;99.90;;;;;;5093154;28;20159;-66
2022/04/08 11:03:29;;;;;;;4.03;3.65;;;6.80;99.90;;;;;;5093542;28;20171;-66
2022/04/08 11:05:55;;;;;;;5.68;4.20;;;6.90;99.90;;;;;;5093186;28;20250;-66
2022/04/08 11:08:26;;;;;;;4.53;4.05;;;6.90;99.90;;;;;;5093489;28;20171;-66
2022/04/08 11:10:59;;;;;;;5.22;4.32;;;6.80;99.90;;;;;;5093420;28;20301;-66
2022/04/08 11:13:25;;;;;;;5.15;4.65;;;6.90;99.90;;;;;;5093378;28;20194;-66
2022/04/08 11:15:53;;;;;;;4.13;3.72;;;7.00;99.90;;;;;;5093205;28;20223;-66
2022/04/08 11:18:24;;;;;;;4.85;3.85;;;7.00;99.90;;;;;;5093331;28;20172;-66
2022/04/08 11:20:49;;;;;;;5.10;4.65;;;7.10;99.90;;;;;;5093608;28;20168;-66
2022/04/08 11:23:25;;;;;;;4.85;4.50;;;7.10;99.90;;;;;;5093297;28;20171;-66
2022/04/08 11:25:52;;;;;;;5.82;5.35;;;7.20;99.90;;;;;;5093373;28;20242;-66
2022/04/08 11:28:17;;;;;;;8.80;5.60;;;7.20;99.90;;;;;;5093234;28;20223;-66
2022/04/08 11:30:44;;;;;;;5.30;5.00;;;7.20;99.90;;;;;;5093329;28;20176;-66
2022/04/08 11:33:16;;;;;;;5.22;4.82;;;7.20;99.90;;;;;;5093186;28;20205;-67
2022/04/08 11:35:43;;;;;;;5.32;4.97;;;7.30;99.90;;;;;;5091901;28;20199;-67
2022/04/08 11:38:16;;;;;;;4.82;4.35;;;7.30;99.90;;;;;;5093233;28;20191;-66
2022/04/08 11:40:42;;;;;;;4.90;4.40;;;7.30;99.90;;;;;;5093174;28;20164;-66
2022/04/08 11:43:11;;;;;;;4.60;4.30;;;7.20;99.90;;;;;;5093111;28;20168;-66
2022/04/08 11:45:37;;;;;;;7.28;5.20;;;7.20;99.90;;;;;;5093028;28;20172;-66
2022/04/08 11:48:06;;;;;;;5.95;5.35;;;7.20;99.90;;;;;;5093145;28;20174;-66
2022/04/08 11:50:33;;;;;;;5.60;5.10;;;7.30;99.90;;;;;;5093116;28;20164;-66
2022/04/08 11:52:59;;;;;;;5.57;5.03;;;7.30;99.90;;;;;;5093055;28;20251;-66
2022/04/08 11:55:27;;;;;;;4.90;4.55;;;7.40;99.90;;;;;;5092922;28;20747;-66
2022/04/08 11:57:53;;;;;;;4.78;4.47;;;7.60;99.90;;;;;;5092921;28;20164;-66
2022/04/08 12:00:30;;;;;;;5.57;4.63;;;8.30;99.90;;;;;;5092919;28;20202;-67
2022/04/08 12:02:59;;;;;;;8.63;4.55;;;7.60;99.90;;;;;;5096748;28;20170;-66
2022/04/08 12:05:27;;;;;;;5.85;5.32;;;7.50;99.90;;;;;;5095589;28;20172;-66
2022/04/08 12:07:55;;;;;;;9.32;4.85;;;7.40;99.90;;;;;;5096793;28;20567;-66
2022/04/08 12:10:22;;;;;;;5.43;4.82;;;7.30;99.90;;;;;;5096640;28;20175;-66
2022/04/08 12:12:48;;;;;;;4.68;4.38;;;7.20;99.90;;;;;;5096439;28;20306;-66
2022/04/08 12:15:14;;;;;;;5.82;4.93;;;7.20;99.90;;;;;;5095841;28;20681;-66
2022/04/08 12:17:40;;;;;;;5.57;4.90;;;7.10;99.90;;;;;;5096450;28;20637;-67
2022/04/08 12:20:14;;;;;;;7.78;4.95;;;7.10;99.90;;;;;;5096478;28;20175;-67
2022/04/08 12:22:40;;;;;;;8.73;4.85;;;7.10;99.90;;;;;;5096428;28;20250;-67
2022/04/08 12:25:07;;;;;;;6.82;4.93;;;7.10;99.90;;;;;;5096285;28;20643;-67
2022/04/08 12:27:34;;;;;;;8.63;5.82;;;7.20;99.90;;;;;;5096381;28;20171;-67
2022/04/08 12:30:01;;;;;;;5.78;5.03;;;7.30;99.90;;;;;;5096282;28;20168;-67
2022/04/08 12:32:43;;;;;;;9.77;5.38;;;7.30;99.90;;;;;;5096256;28;20655;-67
2022/04/08 12:35:12;;;;;;;5.95;5.45;;;7.30;99.90;;;;;;5094885;28;20203;-67
2022/04/08 12:37:38;;;;;;;5.28;4.78;;;7.40;99.90;;;;;;5096131;28;20555;-67
2022/04/08 12:40:05;;;;;;;5.00;4.60;;;7.40;99.90;;;;;;5096186;28;20172;-67
2022/04/08 12:42:34;;;;;;;10.93;5.47;;;7.40;99.90;;;;;;5096044;28;20564;-67
2022/04/08 12:45:00;;;;;;;8.45;5.28;;;7.40;99.90;;;;;;5095984;28;20164;-67
2022/04/08 12:47:29;;;;;;;6.30;4.53;;;7.40;99.90;;;;;;5095952;28;20191;-67
2022/04/08 12:49:55;;;;;;;5.90;4.90;;;7.30;99.90;;;;;;5095943;28;20260;-67
2022/04/08 12:52:21;;;;;;;7.22;4.63;;;7.20;99.90;;;;;;5095836;28;20254;-66
2022/04/08 12:54:46;;;;;;;6.45;5.47;;;7.20;99.90;;;;;;5095677;28;20203;-67
2022/04/08 12:57:12;;;;;;;7.45;4.43;;;7.30;99.90;;;;;;5095838;28;20209;-67
2022/04/08 12:59:38;;;;;;;15.80;6.00;;;7.30;99.90;;;;;;5095727;28;20187;-67
2022/04/08 13:02:04;;;;;;;6.05;5.45;;;7.30;99.90;;;;;;5095706;28;20167;-67
2022/04/08 13:04:30;;;;;;;10.38;5.72;;;7.30;99.90;;;;;;5095601;28;20171;-66
2022/04/08 13:06:57;;;;;;;6.45;5.03;;;7.20;99.90;;;;;;5095497;28;20190;-67
2022/04/08 13:09:25;;;;;;;6.82;5.55;;;7.20;99.90;;;;;;5095511;28;20172;-67
2022/04/08 13:11:51;;;;;;;6.90;5.03;;;7.30;99.90;;;;;;5095364;28;20190;-67
2022/04/08 13:14:17;;;;;;;6.53;4.72;;;7.40;99.90;;;;;;5095189;28;20306;-67
2022/04/08 13:16:42;;;;;;;5.70;4.90;;;7.50;99.90;;;;;;5095398;28;20246;-67
2022/04/08 13:19:08;;;;;;;5.72;4.20;;;7.50;99.90;;;;;;5095261;28;20518;-67
2022/04/08 13:21:34;;;;;;;5.72;4.82;;;7.40;99.90;;;;;;5094084;28;20175;-67
2022/04/08 13:23:59;;;;;;;5.20;4.70;;;7.40;99.90;;;;;;5095281;28;20233;-67
2022/04/08 13:26:26;;;;;;;6.22;4.57;;;7.30;99.90;;;;;;5095256;28;20497;-67
2022/04/08 13:28:53;;;;;;;8.77;3.97;;;7.20;99.90;;;;;;5095561;28;20167;-67
2022/04/08 13:31:19;;;;;;;4.55;4.13;;;7.20;99.90;;;;;;5095133;28;20168;-67
2022/04/08 13:33:44;;;;;;;5.00;4.60;;;7.10;99.90;;;;;;5095060;28;20163;-67
2022/04/08 13:36:10;;;;;;;3.80;3.60;;;7.10;99.90;;;;;;5094947;28;20607;-67
2022/04/08 13:38:36;;;;;;;4.15;3.35;;;7.10;99.90;;;;;;5093654;28;20586;-67
2022/04/08 13:41:01;;;;;;;5.57;3.97;;;7.50;99.90;;;;;;5094595;28;20164;-67
2022/04/08 13:43:27;;;;;;;5.25;4.10;;;7.00;99.90;;;;;;5094593;28;20172;-64
2022/04/08 13:45:52;;;;;;;5.03;4.57;;;7.10;99.90;;;;;;5092830;28;20532;-64
2022/04/08 13:48:18;;;;;;;6.28;4.00;;;7.10;99.90;;;;;;5094685;28;20171;-67
2022/04/08 13:50:45;;;;;;;4.70;4.40;;;7.20;99.90;;;;;;5094605;28;20175;-67
2022/04/08 13:53:11;;;;;;;11.13;4.10;;;7.20;99.90;;;;;;5094510;28;20175;-66
2022/04/08 13:55:36;;;;;;;3.28;3.08;;;7.20;99.90;;;;;;5094616;28;20690;-66
2022/04/08 13:58:02;;;;;;;4.38;3.75;;;7.30;99.90;;;;;;5094395;28;20160;-67
2022/04/08 14:00:28;;;;;;;4.10;3.30;;;7.20;99.90;;;;;;5094277;28;20254;-67
2022/04/08 14:02:53;;;;;;;4.20;3.30;;;7.20;99.90;;;;;;5094189;28;20256;-67
2022/04/08 14:05:19;;;;;;;3.75;3.20;;;7.00;99.90;;;;;;5094835;28;20180;-68
2022/04/08 14:07:45;;;;;;;3.08;2.88;;;6.90;99.90;;;;;;5094144;28;20177;-68
2022/04/08 14:10:11;;;;;;;7.38;3.90;;;7.00;99.90;;;;;;5094412;28;20271;-68
2022/04/08 14:12:37;;;;;;;6.47;3.00;;;7.10;99.90;;;;;;5094365;28;20203;-68
2022/04/08 14:15:03;;;;;;;3.47;3.15;;;7.20;99.90;;;;;;5094081;28;20612;-69
2022/04/08 14:17:29;;;;;;;3.28;3.03;;;7.30;99.90;;;;;;5093571;28;20193;-69
2022/04/08 14:19:55;;;;;;;4.32;3.80;;;7.30;99.90;;;;;;5092985;28;20168;-67
2022/04/08 14:22:20;;;;;;;4.38;3.30;;;7.30;99.90;;;;;;5093618;28;20171;-68
2022/04/08 14:24:46;;;;;;;3.05;2.78;;;7.40;99.90;;;;;;5093131;28;20167;-68
2022/04/08 14:27:12;;;;;;;5.45;2.58;;;7.40;99.90;;;;;;5093779;28;20176;-68
2022/04/08 14:29:37;;;;;;;3.42;2.60;;;7.30;99.90;;;;;;5094013;28;20172;-69
2022/04/08 14:32:03;;;;;;;12.55;2.80;;;7.30;99.90;;;;;;5093360;28;20179;-70
2022/04/08 14:34:29;;;;;;;2.65;2.45;;;7.40;99.90;;;;;;5093387;28;20562;-70
2022/04/08 14:36:55;;;;;;;2.30;2.10;;;7.40;99.90;;;;;;5093592;28;20176;-69
2022/04/08 14:39:20;;;;;;;2.45;2.35;;;7.30;99.90;;;;;;5092936;28;20167;-68
2022/04/08 14:41:46;;;;;;;2.00;2.00;;;7.30;99.90;;;;;;5093359;28;20246;-68
2022/04/08 14:44:11;;;;;;;3.03;2.38;;;7.20;99.90;;;;;;5092708;28;20168;-68
2022/04/08 14:46:38;;;;;;;3.33;2.33;;;7.20;99.90;;;;;;5092308;28;20225;-68
2022/04/08 14:49:04;;;;;;;2.00;1.90;;;7.20;99.90;;;;;;5093557;28;20168;-68
2022/04/08 14:51:30;;;;;;;2.33;2.10;;;7.30;99.90;;;;;;5093484;28;20559;-68
2022/04/08 14:53:56;;;;;;;2.40;2.17;;;7.30;99.90;;;;;;5092164;28;20192;-68
2022/04/08 14:56:23;;;;;;;5.75;3.00;;;7.30;99.90;;;;;;5093298;28;20164;-68
2022/04/08 14:58:49;;;;;;;2.40;2.20;;;7.20;99.90;;;;;;5093587;28;20671;-68
2022/04/08 15:01:15;;;;;;;3.10;2.80;;;7.20;99.90;;;;;;5093238;28;20222;-68
2022/04/08 15:03:41;;;;;;;2.38;2.28;;;7.10;99.90;;;;;;5093610;28;20176;-68
2022/04/08 15:06:08;;;;;;;3.50;2.72;;;7.20;99.90;;;;;;5092019;28;20180;-68
2022/04/08 15:08:35;;;;;;;2.50;2.30;;;7.20;99.90;;;;;;5093433;28;20159;-68
2022/04/08 15:11:05;;;;;;;3.50;2.80;;;7.30;99.90;;;;;;5093136;28;20499;-64
2022/04/08 15:13:31;;;;;;;2.80;2.60;;;7.30;99.90;;;;;;5093222;28;20210;-64
2022/04/08 15:15:58;;;;;;;5.72;2.88;;;7.30;99.90;;;;;;5092970;28;20258;-64
2022/04/08 15:18:25;;;;;;;6.45;3.13;;;7.40;99.90;;;;;;5093387;28;20195;-65
2022/04/08 15:20:52;;;;;;;4.07;3.65;;;7.30;99.90;;;;;;5093352;28;20167;-64
2022/04/08 15:23:18;;;;;;;3.97;3.47;;;7.30;99.90;;;;;;5093332;28;20167;-64
2022/04/08 15:25:43;;;;;;;4.28;3.67;;;7.30;99.90;;;;;;5093317;28;20259;-64
2022/04/08 15:28:09;;;;;;;5.47;3.50;;;7.20;99.90;;;;;;5093282;28;20179;-64
2022/04/08 15:30:35;;;;;;;3.03;2.92;;;7.20;99.90;;;;;;5093277;28;20175;-64
2022/04/08 15:33:00;;;;;;;5.38;3.08;;;7.30;99.90;;;;;;5093200;28;20544;-64
2022/04/08 15:35:26;;;;;;;4.10;2.95;;;7.20;99.90;;;;;;5093191;28;20196;-64
2022/04/08 15:37:53;;;;;;;3.13;2.90;;;7.20;99.90;;;;;;5097129;28;20171;-64
2022/04/08 15:40:19;;;;;;;3.45;2.72;;;7.20;99.90;;;;;;5097345;28;20559;-64
2022/04/08 15:42:44;;;;;;;1.95;1.85;;;7.30;99.90;;;;;;5097250;28;20229;-64
2022/04/08 15:45:10;;;;;;;2.75;2.05;;;7.30;99.90;;;;;;5097058;28;20560;-64
2022/04/08 15:47:35;;;;;;;4.72;2.65;;;7.30;99.90;;;;;;5097152;28;20700;-64
2022/04/08 15:50:03;;;;;;;2.70;2.50;;;7.20;99.90;;;;;;5097301;28;20167;-67
2022/04/08 15:52:32;;;;;;;4.22;2.40;;;7.10;99.90;;;;;;5096745;28;20179;-67
2022/04/08 15:54:59;;;;;;;2.60;2.38;;;7.10;99.90;;;;;;5095095;28;20668;-68
2022/04/08 15:57:24;;;;;;;2.03;1.92;;;7.00;99.90;;;;;;5095507;28;20617;-68
2022/04/08 15:59:50;;;;;;;3.28;2.42;;;6.90;99.90;;;;;;5096856;28;20164;-69
2022/04/08 16:02:15;;;;;;;2.35;2.15;;;6.90;99.90;;;;;;5095541;28;20174;-71
2022/04/08 16:04:41;;;;;;;2.30;2.20;;;6.90;99.90;;;;;;5096800;28;20283;-68
2022/04/08 16:07:07;;;;;;;6.90;2.25;;;6.90;99.90;;;;;;5096735;28;20202;-68
2022/04/08 16:09:33;;;;;;;2.35;2.05;;;7.00;99.90;;;;;;5096772;28;20168;-68
2022/04/08 16:11:58;;;;;;;2.40;2.20;;;6.90;99.90;;;;;;5096618;28;20246;-71
2022/04/08 16:14:24;;;;;;;7.85;2.67;;;6.90;99.90;;;;;;5096422;28;20216;-72
2022/04/08 16:16:50;;;;;;;4.63;2.28;;;6.80;99.90;;;;;;5096536;28;20179;-69
2022/04/08 16:19:16;;;;;;;3.50;2.35;;;7.80;99.90;;;;;;5096558;28;20634;-68
2022/04/08 16:21:42;;;;;;;5.35;3.00;;;6.70;99.90;;;;;;5096515;28;20168;-69
2022/04/08 16:24:08;;;;;;;3.22;2.42;;;6.60;99.90;;;;;;5096377;28;20176;-69
2022/04/08 16:26:37;;;;;;;3.13;2.30;;;6.60;99.90;;;;;;5096364;28;20155;-68
2022/04/08 16:29:03;;;;;;;4.88;2.55;;;6.60;99.90;;;;;;5096369;28;20163;-69
2022/04/08 16:31:29;;;;;;;5.45;2.60;;;6.60;99.90;;;;;;5096392;28;20175;-69
2022/04/08 16:33:56;;;;;;;4.25;2.72;;;6.60;99.90;;;;;;5096174;28;20633;-67
2022/04/08 16:36:21;;;;;;;6.03;2.45;;;6.60;99.90;;;;;;5096245;28;20167;-66
2022/04/08 16:38:48;;;;;;;4.20;2.50;;;6.60;99.90;;;;;;5096192;28;20621;-66
2022/04/08 16:41:14;;;;;;;2.78;2.58;;;6.60;99.90;;;;;;5096051;28;20184;-66
2022/04/08 16:43:39;;;;;;;4.85;2.30;;;6.60;99.90;;;;;;5094777;28;20234;-66
2022/04/08 16:46:05;;;;;;;4.95;2.05;;;6.60;99.90;;;;;;5096132;28;20254;-66
2022/04/08 16:48:31;;;;;;;2.38;2.17;;;6.60;99.90;;;;;;5095531;28;20644;-66
2022/04/08 16:50:57;;;;;;;5.38;2.40;;;6.60;99.90;;;;;;5095946;28;20171;-66
2022/04/08 16:53:22;;;;;;;4.43;3.00;;;6.60;99.90;;;;;;5095720;28;20171;-66
2022/04/08 16:55:48;;;;;;;4.38;2.80;;;6.70;99.90;;;;;;5095832;28;20253;-66
2022/04/08 16:58:14;;;;;;;4.90;2.72;;;6.60;99.90;;;;;;5095746;28;20520;-66
2022/04/08 17:00:39;;;;;;;3.53;2.95;;;6.60;99.90;;;;;;5095819;28;20349;-66
2022/04/08 17:03:05;;;;;;;6.25;3.65;;;7.70;99.90;;;;;;5095742;28;20521;-66
2022/04/08 17:05:31;;;;;;;8.90;3.92;;;6.50;99.90;;;;;;5095734;28;20175;-66
2022/04/08 17:07:57;;;;;;;7.75;7.22;;;6.50;99.90;;;;;;5095616;28;20180;-66
